Time;durP1;ratioP1;P1;durP2;ratioP2;P2;SDS_P1;SDS_P2;PMS_P1;PMS_P2;Temp;Humidity;BMP_temperature;BMP_pressure;BME280_temperature;BME280_humidity;BME280_pressure;Samples;Min_cycle;Max_cycle;Signal;HPM_P1;HPM_P2
2022/02/04 00:03:30;;;;;;;37.15;17.15;;;;;;;6.77;87.33;100883.16;5057359;28;20049;-64
2022/02/04 00:21:21;;;;;;;30.15;16.10;;;;;;;6.86;85.87;100872.72;5060831;28;20055;-63
2022/02/04 00:23:36;;;;;;;28.90;15.75;;;;;;;6.78;85.80;100877.78;5052908;28;20029;-63
2022/02/04 00:29:13;;;;;;;32.42;16.58;;;;;;;6.92;85.76;100879.28;5069223;28;20047;-62
2022/02/04 00:31:34;;;;;;;32.65;16.00;;;;;;;6.80;86.18;100873.22;5067132;28;20072;-62
2022/02/04 00:34:06;;;;;;;28.48;15.10;;;;;;;6.75;86.06;100880.69;5064424;28;20134;-62
2022/02/04 00:36:42;;;;;;;29.17;16.02;;;;;;;6.82;85.74;100881.00;5049696;28;20056;-62
2022/02/04 00:39:14;;;;;;;31.80;16.73;;;;;;;6.76;86.40;100882.34;5031978;28;20051;-62
2022/02/04 00:41:42;;;;;;;32.35;16.50;;;;;;;6.84;85.52;100887.84;5049757;28;20517;-63
2022/02/04 00:44:18;;;;;;;31.27;16.17;;;;;;;6.73;86.19;100878.16;5049270;28;20041;-63
2022/02/04 00:47:01;;;;;;;26.88;16.00;;;;;;;6.68;86.48;100888.25;5049684;28;20056;-63
2022/02/04 00:49:42;;;;;;;29.20;16.05;;;;;;;6.89;85.08;100876.91;5031060;28;20045;-63
2022/02/04 00:52:20;;;;;;;30.33;16.88;;;;;;;6.89;85.87;100879.53;5049396;28;20045;-62
2022/02/04 00:54:56;;;;;;;29.60;15.90;;;;;;;7.01;85.13;100878.53;5033334;28;20091;-62
2022/02/04 00:57:42;;;;;;;27.70;16.60;;;;;;;6.80;86.34;100872.38;5059853;28;20045;-62
2022/02/04 01:27:50;;;;;;;27.63;14.75;;;;;;;6.99;85.25;100861.16;5110677;28;20055;-62
2022/02/04 01:30:20;;;;;;;29.92;15.13;;;;;;;7.01;84.22;100849.50;5094144;28;20093;-62
2022/02/04 01:32:46;;;;;;;31.55;15.55;;;;;;;6.98;84.80;100862.94;5090002;28;20040;-62
2022/02/04 01:35:13;;;;;;;34.92;14.57;;;;;;;6.87;85.27;100863.81;5089146;28;20040;-62
2022/02/04 01:37:40;;;;;;;27.67;13.65;;;;;;;7.04;84.92;100864.22;5087061;28;20416;-63
2022/02/04 01:40:07;;;;;;;25.35;14.40;;;;;;;6.98;84.49;100862.13;5089061;28;20113;-62
2022/02/04 01:42:34;;;;;;;26.92;14.13;;;;;;;7.17;83.19;100859.63;5090058;28;20464;-63
2022/02/04 01:45:01;;;;;;;27.38;14.00;;;;;;;6.97;84.13;100857.78;5097441;28;20093;-62
2022/02/04 01:47:28;;;;;;;24.80;13.30;;;;;;;6.96;84.81;100856.97;5110091;28;20036;-63
2022/02/04 01:49:54;;;;;;;27.92;13.63;;;;;;;6.96;84.66;100856.97;5092451;28;20381;-62
2022/02/04 01:52:21;;;;;;;23.40;12.10;;;;;;;7.10;83.42;100854.00;5100225;28;20424;-63
2022/02/04 01:54:48;;;;;;;27.45;13.43;;;;;;;7.01;84.15;100849.50;5089759;28;20041;-63
2022/02/04 01:57:15;;;;;;;26.48;13.95;;;;;;;6.96;84.21;100849.06;5093540;28;20503;-62
2022/02/04 01:59:42;;;;;;;26.45;12.88;;;;;;;7.20;83.77;100850.59;5088041;28;20464;-63
2022/02/04 02:02:08;;;;;;;23.92;12.38;;;;;;;7.05;83.39;100837.72;5092065;28;20106;-63
2022/02/04 02:04:35;;;;;;;26.80;13.02;;;;;;;7.05;83.37;100834.25;5093467;28;20048;-62
2022/02/04 02:07:09;;;;;;;22.85;12.23;;;;;;;7.17;83.10;100835.88;5090574;28;20044;-62
2022/02/04 02:09:50;;;;;;;23.30;13.32;;;;;;;7.15;82.73;100826.41;5108503;28;20075;-62
2022/02/04 02:12:19;;;;;;;21.27;11.60;;;;;;;7.05;82.91;100827.19;5110082;28;20052;-63
2022/02/04 02:14:54;;;;;;;26.10;11.90;;;;;;;7.04;83.42;100816.75;5109306;28;20125;-63
2022/02/04 02:43:12;;;;;;;18.95;10.07;;;;;;;6.92;82.96;100816.00;5095615;28;20503;-62
2022/02/04 02:46:21;;;;;;;21.25;9.35;;;;;;;6.99;82.15;100813.69;5094371;28;20508;-63
2022/02/04 02:48:16;;;;;;;16.63;9.18;;;;;;;7.08;81.60;100819.00;5094634;28;20493;-63
2022/02/04 02:54:13;;;;;;;18.65;9.35;;;;;;;7.00;82.63;100821.44;5095511;28;20046;-62
2022/02/04 02:58:57;;;;;;;18.33;9.63;;;;;;;7.05;82.73;100815.78;5131450;27;20610;-64
2022/02/04 03:01:26;;;;;;;17.63;9.27;;;;;;;7.14;81.36;100809.75;5127959;28;20499;-64
2022/02/04 03:03:56;;;;;;;18.58;8.30;;;;;;;7.16;81.25;100812.25;5124105;27;20051;-64
2022/02/04 03:06:23;;;;;;;17.42;9.02;;;;;;;7.06;82.23;100813.03;5110856;28;20036;-64
2022/02/04 03:08:49;;;;;;;17.23;8.98;;;;;;;7.12;81.36;100819.59;5109481;28;20100;-63
2022/02/04 03:11:16;;;;;;;17.60;8.98;;;;;;;7.05;81.60;100819.25;5110721;28;20036;-63
2022/02/04 03:13:43;;;;;;;18.35;9.23;;;;;;;7.13;81.42;100818.63;5109531;28;20051;-63
2022/02/04 03:16:15;;;;;;;20.95;8.50;;;;;;;7.14;81.06;100806.28;5092724;28;20038;-64
2022/02/04 03:18:45;;;;;;;18.25;9.30;;;;;;;7.33;80.75;100802.88;5126099;28;20053;-63
2022/02/04 03:21:26;;;;;;;17.60;8.68;;;;;;;7.26;80.26;100798.16;5129978;28;20093;-63
2022/02/04 03:23:58;;;;;;;17.08;8.43;;;;;;;7.08;80.80;100783.88;5130964;27;20480;-64
2022/02/04 03:26:45;;;;;;;18.08;8.88;;;;;;;7.15;80.33;100792.09;5129621;28;20058;-64
2022/02/04 03:29:17;;;;;;;15.45;8.73;;;;;;;7.27;80.04;100783.16;5129873;28;20051;-63
2022/02/04 03:31:49;;;;;;;17.33;8.80;;;;;;;7.25;79.45;100778.00;5128035;28;20031;-63
2022/02/04 03:34:17;;;;;;;17.70;9.45;;;;;;;7.16;79.97;100770.88;5127770;28;20046;-64
2022/02/04 03:36:45;;;;;;;15.82;8.30;;;;;;;7.09;80.51;100775.84;5129635;28;20548;-63
2022/02/04 03:39:11;;;;;;;16.70;8.20;;;;;;;7.07;80.80;100776.94;5130564;27;20047;-64
2022/02/04 03:41:38;;;;;;;17.13;8.68;;;;;;;7.04;80.39;100774.53;5127928;27;20048;-64
2022/02/04 03:44:05;;;;;;;18.15;8.68;;;;;;;7.09;79.95;100767.09;5110032;28;20039;-64
2022/02/04 03:46:32;;;;;;;16.90;9.00;;;;;;;7.04;80.74;100770.13;5108870;28;20488;-62
2022/02/04 03:48:58;;;;;;;17.00;8.90;;;;;;;7.16;80.04;100764.75;5108657;28;20153;-62
2022/02/04 03:51:25;;;;;;;22.05;9.25;;;;;;;7.04;80.46;100770.13;5111822;27;20057;-62
2022/02/04 03:53:52;;;;;;;19.25;9.23;;;;;;;7.10;80.02;100758.22;5113713;27;20043;-62
2022/02/04 03:56:20;;;;;;;17.58;9.05;;;;;;;7.14;80.27;100764.88;5109780;28;20040;-62
2022/02/04 03:58:47;;;;;;;17.02;8.32;;;;;;;7.21;80.18;100765.22;5108989;28;20048;-65
2022/02/04 04:01:14;;;;;;;20.05;9.00;;;;;;;7.25;79.62;100763.97;5123827;28;20040;-62
2022/02/04 04:03:41;;;;;;;18.75;8.40;;;;;;;7.23;78.92;100768.56;5125168;27;20039;-62
2022/02/04 04:06:09;;;;;;;17.30;8.52;;;;;;;7.10;79.42;100768.75;5108491;28;20071;-62
2022/02/04 04:08:36;;;;;;;18.38;9.23;;;;;;;7.15;80.17;100760.44;5104830;28;20036;-62
2022/02/04 04:11:03;;;;;;;19.08;8.45;;;;;;;7.10;79.40;100760.84;5094868;28;20048;-63
2022/02/04 04:13:30;;;;;;;16.75;8.20;;;;;;;7.04;80.15;100761.34;5096115;28;20052;-63
2022/02/04 04:15:56;;;;;;;14.55;7.43;;;;;;;7.07;80.00;100761.09;5099632;28;20093;-62
2022/02/04 04:18:23;;;;;;;18.98;8.82;;;;;;;7.16;79.23;100759.50;5097834;28;20039;-63
2022/02/04 04:20:50;;;;;;;17.60;8.23;;;;;;;7.20;79.00;100758.25;5115423;28;20048;-63
2022/02/04 04:23:16;;;;;;;16.15;8.23;;;;;;;7.23;78.90;100764.09;5115472;28;20048;-63
2022/02/04 04:25:44;;;;;;;19.33;8.70;;;;;;;7.15;79.20;100773.63;5114142;28;20489;-63
2022/02/04 04:28:14;;;;;;;18.80;8.50;;;;;;;7.32;79.51;100772.22;5114859;28;20074;-63
2022/02/04 04:30:40;;;;;;;19.33;7.72;;;;;;;7.25;78.62;100770.06;5110943;27;20040;-63
2022/02/04 04:33:09;;;;;;;15.50;7.57;;;;;;;7.32;78.27;100766.94;5116101;28;20141;-63
2022/02/04 04:35:36;;;;;;;16.35;7.90;;;;;;;7.18;79.65;100774.22;5114879;28;20054;-63
2022/02/04 04:38:12;;;;;;;17.67;8.07;;;;;;;7.25;79.02;100772.72;5098392;28;20042;-63
2022/02/04 04:44:08;;;;;;;12.80;6.90;;;;;;;7.15;79.28;100771.00;5095347;28;20050;-63
2022/02/04 05:26:00;;;;;;;14.75;6.75;;;;;;;7.27;78.92;100760.22;5095087;28;20048;-63
2022/02/04 05:28:13;;;;;;;14.40;6.30;;;;;;;7.41;77.21;100737.09;5094399;28;20045;-64
2022/02/04 05:30:40;;;;;;;12.38;5.55;;;;;;;7.36;76.50;100736.66;5101519;28;20043;-63
2022/02/04 05:33:06;;;;;;;13.13;5.50;;;;;;;7.39;77.48;100736.41;5111579;28;20112;-64
2022/02/04 05:35:33;;;;;;;13.45;5.50;;;;;;;7.32;77.20;100744.00;5113435;28;20047;-64
2022/02/04 05:38:02;;;;;;;15.13;5.55;;;;;;;7.23;78.02;100736.88;5113659;28;20035;-64
2022/02/04 05:40:38;;;;;;;13.52;5.35;;;;;;;7.39;77.10;100746.97;5113384;28;20123;-64
2022/02/04 05:43:14;;;;;;;10.32;4.88;;;;;;;7.35;77.66;100740.25;5113541;27;20487;-64
2022/02/04 05:45:50;;;;;;;12.70;5.47;;;;;;;7.41;77.18;100737.09;5112274;28;20050;-64
2022/02/04 05:48:17;;;;;;;14.73;5.07;;;;;;;7.41;76.50;100737.94;5113257;28;20043;-63
2022/02/04 05:53:40;;;;;;;11.63;5.32;;;;;;;7.48;76.99;100732.97;5111158;27;20088;-63
2022/02/04 05:56:22;;;;;;;12.80;5.72;;;;;;;7.56;77.23;100740.19;5113680;28;20047;-63
2022/02/04 06:01:54;;;;;;;12.18;4.93;;;;;;;7.40;76.59;100730.97;5111110;28;20040;-63
2022/02/04 06:07:38;;;;;;;10.82;4.93;;;;;;;7.49;77.12;100731.97;5129633;27;20413;-64
2022/02/04 06:13:19;;;;;;;11.63;5.15;;;;;;;7.54;76.87;100735.06;5131427;27;20419;-62
2022/02/04 06:23:40;;;;;;;12.27;5.25;;;;;;;7.41;76.52;100729.19;5110382;28;20043;-64
2022/02/04 06:26:07;;;;;;;12.70;5.35;;;;;;;7.43;76.62;100725.44;5110017;28;20081;-64
2022/02/04 06:28:35;;;;;;;16.65;5.13;;;;;;;7.37;77.75;100725.13;5110517;28;20047;-64
2022/02/04 06:31:03;;;;;;;11.55;4.95;;;;;;;7.43;76.54;100727.25;5120776;28;20051;-64
2022/02/04 06:33:30;;;;;;;15.52;5.43;;;;;;;7.43;77.54;100722.78;5105273;28;20496;-64
2022/02/04 06:35:57;;;;;;;12.65;5.28;;;;;;;7.43;77.48;100729.88;5105682;28;20038;-65
2022/02/04 06:38:23;;;;;;;11.43;5.40;;;;;;;7.37;77.90;100720.69;5089796;28;20468;-65
2022/02/04 06:40:50;;;;;;;13.25;4.80;;;;;;;7.42;77.28;100722.91;5105385;28;20496;-62
2022/02/04 06:43:17;;;;;;;12.77;4.85;;;;;;;7.38;77.06;100718.88;5080166;28;20044;-63
2022/02/04 06:45:43;;;;;;;14.07;5.22;;;;;;;7.46;77.00;100725.16;5088358;28;20546;-65
2022/02/04 06:48:10;;;;;;;9.48;4.55;;;;;;;7.44;77.39;100720.97;5123778;28;20050;-64
2022/02/04 06:50:37;;;;;;;10.20;4.65;;;;;;;7.32;78.44;100716.78;5125587;28;20089;-64
2022/02/04 06:53:05;;;;;;;10.65;4.90;;;;;;;7.37;78.17;100725.13;5100062;28;20044;-63
2022/02/04 06:55:32;;;;;;;13.32;4.30;;;;;;;7.37;77.63;100725.97;5096939;28;20036;-63
2022/02/04 06:57:59;;;;;;;9.13;4.32;;;;;;;7.34;78.59;100734.16;5088022;28;20042;-63
2022/02/04 07:00:28;;;;;;;8.27;4.35;;;;;;;7.33;79.05;100726.34;5079917;28;20043;-64
2022/02/04 07:02:55;;;;;;;10.25;4.50;;;;;;;7.25;79.55;100733.13;5074719;28;20534;-64
2022/02/04 07:05:23;;;;;;;11.35;4.60;;;;;;;7.35;78.83;100753.44;5089835;28;20108;-64
2022/02/04 07:08:01;;;;;;;9.93;4.53;;;;;;;7.36;79.20;100749.84;5109439;28;20373;-64
2022/02/04 07:10:40;;;;;;;11.25;4.85;;;;;;;7.34;79.85;100743.88;5108526;28;20495;-64
2022/02/04 07:13:16;;;;;;;11.48;4.25;;;;;;;7.43;79.41;100754.47;5108256;28;20380;-63
2022/02/04 07:15:52;;;;;;;14.43;4.93;;;;;;;7.22;80.95;100745.75;5109743;28;20043;-63
2022/02/04 07:19:45;;;;;;;11.40;4.57;;;;;;;7.22;81.72;100756.31;5095844;28;20040;-64
2022/02/04 07:21:06;;;;;;;11.52;4.72;;;;;;;7.28;81.43;100753.16;5096041;28;20078;-64
2022/02/04 07:23:35;;;;;;;10.52;4.93;;;;;;;7.30;81.44;100767.06;5095370;28;20044;-64
2022/02/04 07:26:03;;;;;;;11.93;5.30;;;;;;;7.19;82.38;100753.97;5095750;28;20044;-64
2022/02/04 07:28:31;;;;;;;11.88;5.40;;;;;;;7.18;82.85;100742.53;5090800;28;20097;-64
2022/02/04 07:31:00;;;;;;;11.85;6.07;;;;;;;7.13;83.29;100749.19;5085275;28;20040;-64
2022/02/04 07:33:40;;;;;;;12.13;5.60;;;;;;;7.18;83.72;100732.00;5077842;28;20040;-64
2022/02/04 07:41:26;;;;;;;16.92;6.50;;;;;;;7.04;84.47;100730.56;5093132;28;20040;-64
2022/02/04 07:43:53;;;;;;;12.93;6.35;;;;;;;7.01;85.25;100728.16;5095128;28;20036;-64
2022/02/04 07:46:20;;;;;;;14.95;6.82;;;;;;;7.12;84.43;100716.69;5094842;28;20036;-64
2022/02/04 07:48:47;;;;;;;14.10;7.18;;;;;;;7.06;84.79;100727.78;5093430;28;20048;-64
2022/02/04 07:51:14;;;;;;;14.18;6.00;;;;;;;7.18;84.47;100713.53;5093944;28;20053;-64
2022/02/04 07:53:41;;;;;;;10.60;5.45;;;;;;;7.08;84.06;100723.22;5080207;28;21442;-64
2022/02/04 07:56:08;;;;;;;14.13;5.95;;;;;;;6.95;85.01;100722.56;5115040;28;20036;-64
2022/02/04 07:58:34;;;;;;;13.30;5.50;;;;;;;7.01;84.26;100727.34;5116165;27;20048;-64
2022/02/04 08:01:03;;;;;;;14.32;6.97;;;;;;;6.99;84.22;100724.00;5091645;28;20040;-64
2022/02/04 08:03:34;;;;;;;13.43;6.78;;;;;;;7.13;83.56;100717.53;5092679;28;20118;-65
2022/02/04 08:06:08;;;;;;;14.80;7.30;;;;;;;7.09;83.59;100719.59;5092857;28;20052;-64
2022/02/04 08:08:42;;;;;;;18.83;6.63;;;;;;;7.19;83.44;100709.94;5094653;28;20093;-64
2022/02/04 08:14:09;;;;;;;14.32;6.63;;;;;;;7.29;82.83;100694.97;5081640;28;20044;-63
2022/02/04 08:16:55;;;;;;;11.95;5.93;;;;;;;7.27;82.22;100683.69;5094791;28;20036;-65
2022/02/04 08:24:45;;;;;;;13.68;5.82;;;;;;;7.47;81.27;100687.22;5122674;27;20129;-64
2022/02/04 08:32:58;;;;;;;10.60;4.57;;;;;;;7.69;79.01;100690.63;5101952;28;20051;-64
2022/02/04 08:36:06;;;;;;;11.57;4.60;;;;;;;7.63;78.57;100689.34;5099154;28;20131;-64
2022/02/04 08:38:29;;;;;;;11.85;4.75;;;;;;;7.62;79.27;100700.03;5096775;28;20036;-65
2022/02/04 08:49:35;;;;;;;11.90;4.80;;;;;;;7.66;78.60;100683.81;5099887;28;20077;-64
2022/02/04 08:54:58;;;;;;;10.73;5.22;;;;;;;7.74;78.83;100677.84;5100469;28;20075;-63
2022/02/04 08:57:38;;;;;;;11.73;5.22;;;;;;;7.69;78.70;100680.91;5101020;28;20036;-62
2022/02/04 09:00:30;;;;;;;11.00;4.95;;;;;;;7.79;79.05;100677.44;5092205;28;20079;-62
2022/02/04 09:02:59;;;;;;;10.88;5.00;;;;;;;7.84;78.90;100667.28;5098356;28;20377;-65
2022/02/04 09:05:39;;;;;;;11.90;5.57;;;;;;;7.90;78.69;100668.56;5094916;28;20087;-65
2022/02/04 09:08:17;;;;;;;20.25;8.70;;;;;;;7.88;78.70;100672.16;5098551;28;20516;-64
2022/02/04 09:10:47;;;;;;;18.17;8.55;;;;;;;7.97;79.05;100670.50;5093419;28;20063;-64
2022/02/04 09:18:58;;;;;;;11.32;5.22;;;;;;;7.95;78.50;100655.75;5098426;28;20050;-64
2022/02/04 09:21:48;;;;;;;11.70;4.75;;;;;;;7.92;78.33;100645.47;5105239;28;20499;-64
2022/02/04 09:24:12;;;;;;;13.43;5.97;;;;;;;7.90;79.28;100647.44;5098561;28;20044;-64
2022/02/04 09:26:40;;;;;;;11.77;5.45;;;;;;;8.09;77.92;100647.41;5104881;28;20044;-65
2022/02/04 09:29:07;;;;;;;11.48;5.28;;;;;;;8.02;78.93;100644.50;5100450;28;20094;-64
2022/02/04 09:31:36;;;;;;;10.55;5.40;;;;;;;7.90;80.17;100645.59;5078458;28;20048;-65
2022/02/04 09:34:04;;;;;;;12.70;5.53;;;;;;;7.93;80.03;100636.56;5089710;28;20040;-65
2022/02/04 09:36:32;;;;;;;19.83;9.25;;;;;;;8.00;79.42;100641.13;5062347;28;20459;-64
2022/02/04 09:38:59;;;;;;;13.32;5.65;;;;;;;7.99;80.07;100639.50;5078338;28;20564;-66
2022/02/04 09:41:27;;;;;;;10.77;5.22;;;;;;;7.75;80.70;100631.13;5062347;28;20056;-65
2022/02/04 09:43:54;;;;;;;9.90;4.68;;;;;;;7.82;80.23;100632.25;5070053;28;20037;-65
2022/02/04 09:46:20;;;;;;;12.07;4.70;;;;;;;7.81;80.16;100617.41;5081438;28;20558;-65
2022/02/04 09:48:53;;;;;;;10.48;4.72;;;;;;;7.86;80.43;100628.38;5082694;28;20082;-65
2022/02/04 09:51:28;;;;;;;10.00;4.75;;;;;;;7.84;80.56;100622.38;5089855;28;20044;-65
2022/02/04 10:06:21;;;;;;;10.82;4.47;;;;;;;7.91;80.57;100623.50;5065372;28;20052;-65
2022/02/04 10:08:14;;;;;;;9.90;4.70;;;;;;;7.88;80.60;100621.16;5088833;28;20043;-66
2022/02/04 10:11:05;;;;;;;10.43;4.25;;;;;;;8.00;79.53;100622.66;5084005;28;20404;-65
2022/02/04 10:14:06;;;;;;;12.50;4.68;;;;;;;7.91;80.12;100617.38;5077534;28;20047;-65
2022/02/04 10:17:06;;;;;;;10.60;4.20;;;;;;;7.86;80.49;100613.34;5087290;28;20408;-65
2022/02/04 10:19:15;;;;;;;15.02;4.80;;;;;;;7.82;81.52;100614.63;5080108;28;20036;-66
2022/02/04 10:21:42;;;;;;;8.25;3.75;;;;;;;7.92;81.82;100605.84;5090091;28;20044;-65
2022/02/04 10:24:09;;;;;;;9.55;4.53;;;;;;;7.92;81.62;100604.03;5085621;28;20450;-65
2022/02/04 10:26:36;;;;;;;11.80;4.38;;;;;;;7.82;82.95;100603.19;5080971;28;20340;-65
2022/02/04 10:29:03;;;;;;;8.70;3.72;;;;;;;7.81;82.86;100597.09;5085325;28;20048;-65
2022/02/04 10:31:30;;;;;;;9.07;4.13;;;;;;;7.81;83.42;100585.69;5077998;28;20044;-65
2022/02/04 10:34:05;;;;;;;11.70;4.22;;;;;;;7.89;83.24;100585.81;5077710;28;20032;-66
2022/02/04 10:36:51;;;;;;;7.97;3.35;;;;;;;7.82;82.59;100580.28;5080326;28;20509;-65
2022/02/04 10:40:13;;;;;;;8.25;3.40;;;;;;;7.82;83.88;100576.78;5078038;28;20044;-66
2022/02/04 10:42:34;;;;;;;6.90;3.30;;;;;;;7.79;81.64;100572.63;5084198;28;20066;-65
2022/02/04 10:45:26;;;;;;;8.63;3.30;;;;;;;7.74;81.81;100580.13;5080848;28;20036;-65
2022/02/04 11:01:57;;;;;;;6.35;2.80;;;;;;;8.01;79.38;100549.53;5144972;27;20035;-65
2022/02/04 11:35:42;;;;;;;5.43;2.28;;;;;;;8.56;72.94;100501.25;5093617;27;20405;-66
2022/02/04 11:52:35;;;;;;;5.72;2.50;;;;;;;8.41;71.25;100477.91;5117594;27;20427;-66
2022/02/04 11:58:03;;;;;;;5.70;1.98;;;;;;;8.30;71.17;100440.28;5070353;27;20428;-66
2022/02/04 12:00:39;;;;;;;5.63;2.13;;;;;;;8.34;71.17;100439.00;5047204;28;20379;-67
2022/02/04 12:03:29;;;;;;;4.72;2.00;;;;;;;8.41;70.84;100416.28;5063592;28;20044;-66
2022/02/04 12:05:56;;;;;;;7.53;2.13;;;;;;;8.33;71.04;100400.31;5029984;28;20037;-66
2022/02/04 12:08:25;;;;;;;6.60;2.20;;;;;;;8.37;71.14;100405.19;5052334;28;20428;-66
2022/02/04 12:10:55;;;;;;;4.97;2.10;;;;;;;8.46;70.65;100400.84;5034185;28;20037;-66
2022/02/04 12:13:24;;;;;;;6.88;2.22;;;;;;;8.38;70.81;100393.59;5055496;28;20569;-66
2022/02/04 12:16:06;;;;;;;5.65;2.30;;;;;;;8.41;70.50;100395.97;5071088;28;20041;-65
2022/02/04 12:21:12;;;;;;;5.38;2.10;;;;;;;8.34;70.67;100388.78;5065253;27;20166;-66
2022/02/04 12:23:43;;;;;;;5.68;2.00;;;;;;;8.32;70.95;100383.63;5042500;28;20076;-67
2022/02/04 12:31:35;;;;;;;5.47;2.30;;;;;;;8.30;70.75;100375.03;5138022;27;20119;-66
2022/02/04 12:39:27;;;;;;;6.18;2.55;;;;;;;8.33;71.64;100353.59;5059535;28;20464;-66
2022/02/04 12:41:58;;;;;;;6.47;2.70;;;;;;;8.37;71.66;100346.22;5045157;28;20029;-66
2022/02/04 12:44:31;;;;;;;9.63;2.85;;;;;;;8.34;71.62;100351.78;5047855;28;20041;-64
2022/02/04 12:47:00;;;;;;;6.75;2.47;;;;;;;8.37;71.63;100347.03;5048150;28;20069;-65
2022/02/04 12:49:29;;;;;;;8.00;2.80;;;;;;;8.43;72.03;100343.81;5045669;28;20037;-65
2022/02/04 12:52:08;;;;;;;6.75;2.63;;;;;;;8.44;71.22;100337.56;5048466;28;20045;-65
2022/02/04 12:54:43;;;;;;;7.80;2.55;;;;;;;8.41;71.75;100343.09;5004855;28;20454;-65
2022/02/04 13:01:56;;;;;;;6.18;2.65;;;;;;;8.32;71.70;100332.59;5048954;28;20068;-65
2022/02/04 13:03:11;;;;;;;6.60;2.60;;;;;;;8.37;71.29;100333.81;5044596;28;20906;-65
2022/02/04 13:08:47;;;;;;;6.03;2.67;;;;;;;8.34;71.07;100325.34;5028048;28;20046;-65
2022/02/04 13:11:17;;;;;;;8.50;3.33;;;;;;;8.26;71.23;100321.66;5045088;28;20068;-65
2022/02/04 13:13:48;;;;;;;7.15;3.30;;;;;;;8.37;71.84;100320.59;5029942;28;20045;-65
2022/02/04 13:19:01;;;;;;;7.63;3.22;;;;;;;8.39;71.35;100308.06;5062668;27;20434;-66
2022/02/04 13:21:30;;;;;;;7.78;3.30;;;;;;;8.39;70.09;100315.16;5055117;28;20083;-65
2022/02/04 13:24:05;;;;;;;8.15;3.72;;;;;;;8.43;70.30;100290.13;5065446;28;20048;-65
2022/02/04 13:26:33;;;;;;;10.50;3.30;;;;;;;8.58;69.30;100290.41;5057950;28;20501;-64
2022/02/04 13:29:05;;;;;;;6.85;2.83;;;;;;;8.55;69.39;100280.13;5053455;28;20563;-64
2022/02/04 13:31:36;;;;;;;10.70;3.50;;;;;;;8.79;69.05;100279.53;5048933;28;20049;-66
2022/02/04 13:34:11;;;;;;;6.75;2.78;;;;;;;8.78;68.51;100283.13;5061066;28;20068;-65
2022/02/04 13:36:48;;;;;;;8.80;3.50;;;;;;;8.70;69.16;100277.81;5067953;28;20069;-66
2022/02/04 13:39:47;;;;;;;8.30;3.60;;;;;;;8.70;68.60;100275.97;5042751;28;20045;-66
2022/02/04 13:42:28;;;;;;;10.77;3.63;;;;;;;8.70;69.07;100275.97;5056070;28;20048;-66
2022/02/04 13:47:45;;;;;;;8.82;3.40;;;;;;;8.80;68.89;100268.78;5059553;28;20060;-65
2022/02/04 13:53:09;;;;;;;6.72;3.17;;;;;;;8.86;68.79;100262.06;5060611;28;20037;-65
2022/02/04 13:55:57;;;;;;;6.85;2.72;;;;;;;8.79;69.96;100261.00;5048586;28;20111;-65
2022/02/04 14:03:59;;;;;;;13.20;3.80;;;;;;;8.25;70.93;100229.28;5123737;27;20936;-66
2022/02/04 14:06:29;;;;;;;7.40;3.03;;;;;;;8.29;70.98;100225.38;5116209;28;20055;-66
2022/02/04 14:09:00;;;;;;;7.05;2.97;;;;;;;8.32;70.78;100211.84;5101764;28;20060;-66
2022/02/04 14:11:32;;;;;;;8.23;2.80;;;;;;;8.33;70.44;100207.38;5110820;28;20052;-66
2022/02/04 14:14:04;;;;;;;8.80;3.20;;;;;;;8.35;69.68;100202.78;5108812;28;20138;-66
2022/02/04 14:16:30;;;;;;;6.70;2.72;;;;;;;8.43;69.46;100185.22;5123146;28;20036;-66
2022/02/04 14:18:57;;;;;;;7.07;2.65;;;;;;;8.55;68.68;100191.09;5122683;27;20404;-66
2022/02/04 14:21:25;;;;;;;8.10;2.67;;;;;;;8.46;67.96;100178.81;5124666;27;20043;-66
2022/02/04 14:23:55;;;;;;;9.85;2.67;;;;;;;8.56;67.21;100178.69;5113783;28;20407;-66
2022/02/04 14:26:27;;;;;;;8.27;2.60;;;;;;;8.50;67.12;100168.75;5116471;28;20047;-66
2022/02/04 14:29:01;;;;;;;9.77;2.33;;;;;;;8.50;66.84;100160.81;5115527;28;20048;-66
2022/02/04 14:31:36;;;;;;;9.25;2.90;;;;;;;8.53;67.69;100157.84;5117794;28;20036;-66
2022/02/04 14:51:45;;;;;;;10.60;2.58;;;;;;;8.48;67.40;100139.81;5064825;28;20671;-66
2022/02/04 14:54:03;;;;;;;7.70;2.30;;;;;;;8.52;67.61;100129.78;5063419;28;20040;-66
2022/02/04 15:02:11;;;;;;;11.27;3.17;;;;;;;8.53;67.99;100118.19;5103004;28;20174;-66
2022/02/04 15:04:47;;;;;;;9.85;2.85;;;;;;;8.63;67.42;100111.00;5057849;28;20549;-66
2022/02/04 15:07:14;;;;;;;7.63;2.92;;;;;;;8.51;66.95;100105.13;5054826;28;20140;-67
2022/02/04 15:09:56;;;;;;;12.25;2.65;;;;;;;8.52;66.84;100103.34;5086889;28;20036;-67
2022/02/04 15:12:23;;;;;;;13.57;3.35;;;;;;;8.64;66.56;100110.84;5080010;28;20055;-66
2022/02/04 15:14:50;;;;;;;8.60;2.45;;;;;;;8.62;66.67;100096.94;5088024;28;20044;-65
2022/02/04 15:17:17;;;;;;;7.70;2.55;;;;;;;8.64;66.78;100112.63;5076918;28;20510;-66
2022/02/04 15:19:45;;;;;;;11.50;2.45;;;;;;;8.58;66.75;100107.97;5079292;28;20097;-66
2022/02/04 15:22:13;;;;;;;9.15;2.42;;;;;;;8.55;69.28;100113.56;5067537;28;20063;-66
2022/02/04 15:24:40;;;;;;;7.78;2.30;;;;;;;8.53;68.84;100124.34;5066910;28;20044;-66
2022/02/04 15:27:07;;;;;;;10.30;2.53;;;;;;;8.41;70.87;100112.31;5086148;28;20036;-65
2022/02/04 15:29:39;;;;;;;15.55;5.20;;;;;;;8.47;72.06;100106.44;5085038;28;20047;-65
2022/02/04 15:32:06;;;;;;;;;;;;;;;8.56;73.60;100116.06;5076581;28;20072;-66
2022/02/04 15:34:34;;;;;;;15.43;3.75;;;;;;;8.41;73.65;100133.47;5072012;28;19920;-66
2022/02/04 15:37:01;;;;;;;10.15;2.80;;;;;;;8.31;74.98;100130.91;5079883;28;20445;-66
2022/02/04 15:39:29;;;;;;;7.68;2.33;;;;;;;8.12;76.70;100123.19;5079476;28;20036;-65
2022/02/04 15:42:04;;;;;;;9.50;2.55;;;;;;;8.00;77.42;100114.66;5066213;28;20052;-65
2022/02/04 15:47:22;;;;;;;7.80;2.90;;;;;;;7.81;80.12;100105.91;5107193;27;20408;-64
2022/02/04 15:50:19;;;;;;;7.57;2.67;;;;;;;7.83;79.88;100111.03;5098155;28;20040;-64
2022/02/04 15:52:48;;;;;;;7.47;2.35;;;;;;;7.67;80.32;100104.63;5093140;28;20041;-64
2022/02/04 15:58:13;;;;;;;9.73;2.63;;;;;;;7.64;80.76;100107.59;5125710;27;20413;-66
2022/02/04 16:03:37;;;;;;;5.68;2.30;;;;;;;7.56;82.53;100112.75;5105377;27;20109;-67
2022/02/04 16:06:05;;;;;;;5.75;2.30;;;;;;;7.59;82.45;100116.94;5088595;28;20147;-66
2022/02/04 16:08:31;;;;;;;6.22;2.20;;;;;;;7.63;82.27;100113.00;5077542;28;20055;-66
2022/02/04 16:11:12;;;;;;;7.43;2.20;;;;;;;7.43;82.83;100113.13;5120125;28;20373;-64
2022/02/04 16:14:04;;;;;;;13.02;2.50;;;;;;;7.48;83.23;100115.34;5089761;28;20052;-64
2022/02/04 16:16:31;;;;;;;7.72;2.17;;;;;;;7.44;83.22;100122.72;5087316;28;20543;-65
2022/02/04 16:19:06;;;;;;;9.00;2.40;;;;;;;7.48;83.67;100117.97;5087780;28;20534;-64
2022/02/04 16:29:18;;;;;;;6.47;2.05;;;;;;;7.27;85.96;100148.06;5091886;28;20054;-63
2022/02/04 16:31:46;;;;;;;7.47;2.63;;;;;;;7.21;86.62;100148.69;5085005;28;20059;-65
2022/02/04 16:34:14;;;;;;;8.32;3.08;;;;;;;7.17;87.11;100178.13;5080439;28;20570;-64
2022/02/04 16:36:56;;;;;;;8.90;2.95;;;;;;;7.11;88.68;100195.34;5059151;28;20408;-64
2022/02/04 16:39:23;;;;;;;7.57;2.88;;;;;;;6.95;89.54;100232.91;5098541;28;20040;-63
2022/02/04 16:41:54;;;;;;;8.27;2.92;;;;;;;6.63;87.15;100262.25;5049018;28;20122;-66
2022/02/04 16:44:21;;;;;;;9.40;2.70;;;;;;;6.51;87.01;100291.38;5099639;28;20062;-63
2022/02/04 16:46:48;;;;;;;11.27;2.72;;;;;;;6.36;86.31;100302.47;5102554;28;20059;-64
2022/02/04 16:49:15;;;;;;;8.77;2.03;;;;;;;6.11;84.47;100323.91;5092759;28;20044;-64
2022/02/04 16:51:42;;;;;;;4.85;1.75;;;;;;;5.88;84.09;100349.59;5084588;28;20172;-66
2022/02/04 16:54:09;;;;;;;6.40;1.80;;;;;;;5.79;85.07;100371.44;5099780;28;20123;-64
2022/02/04 16:56:36;;;;;;;4.35;1.90;;;;;;;5.75;85.53;100399.00;5091954;28;20088;-65
2022/02/04 16:59:04;;;;;;;3.50;1.80;;;;;;;5.53;82.62;100397.34;5084789;28;20050;-65
2022/02/04 17:01:31;;;;;;;3.33;1.80;;;;;;;5.30;82.19;100426.41;5087427;28;20040;-64
2022/02/04 17:03:58;;;;;;;3.85;1.80;;;;;;;5.10;82.81;100435.94;5105803;28;20043;-64
2022/02/04 17:06:27;;;;;;;4.90;2.20;;;;;;;5.12;83.75;100441.09;5104107;28;20062;-64
2022/02/04 17:09:05;;;;;;;7.43;2.40;;;;;;;4.93;84.22;100452.25;5101183;28;20504;-64
2022/02/04 17:11:34;;;;;;;5.80;2.30;;;;;;;4.94;83.13;100469.72;5098365;28;20039;-64